Time,TemperatureF,DewpointF,PressureIn,WindDirection,WindDirectionDegrees,WindSpeedMPH,WindSpeedGustMPH,Humidity,HourlyPrecipIn,Conditions,Clouds,dailyrainin,SolarRadiationWatts/m^2,SoftwareType,DateUTC
2013-12-13 00:02:00,-8.0,-15.0,-100.00,NW,325,9.0,16.0,71,0.00,,,0.00,0.000000,,2013-12-13 06:02:00,
2013-12-13 00:12:00,-8.0,-15.0,-100.00,NW,325,9.0,16.0,71,0.00,,,0.00,0.000000,,2013-12-13 06:12:00,
2013-12-13 00:43:00,-9.0,-16.0,-100.00,NNW,340,7.0,13.0,72,0.00,,,0.00,0.000000,,2013-12-13 06:43:00,
2013-12-13 00:52:00,-9.0,-16.0,-100.00,NNW,340,7.0,13.0,72,0.00,,,0.00,0.000000,,2013-12-13 06:52:00,
2013-12-13 01:02:00,-9.0,-16.0,-100.00,NNW,340,7.0,13.0,72,0.00,,,0.00,0.000000,,2013-12-13 07:02:00,
2013-12-13 01:11:00,-9.0,-16.0,-100.00,NNW,340,7.0,13.0,72,0.00,,,0.00,0.000000,,2013-12-13 07:11:00,
2013-12-13 01:42:00,-10.0,-17.0,-100.00,NNW,341,5.0,12.0,71,0.00,,,0.00,0.000000,,2013-12-13 07:42:00,
2013-12-13 01:52:00,-10.0,-17.0,-100.00,NNW,341,5.0,12.0,71,0.00,,,0.00,0.000000,,2013-12-13 07:52:00,
2013-12-13 02:02:00,-10.0,-17.0,-100.00,NNW,341,5.0,12.0,71,0.00,,,0.00,0.000000,,2013-12-13 08:02:00,
2013-12-13 02:11:00,-10.0,-17.0,-100.00,NNW,341,5.0,12.0,71,0.00,,,0.00,0.000000,,2013-12-13 08:11:00,
2013-12-13 02:42:00,-11.0,-18.0,-100.00,North,350,6.0,12.0,69,0.00,,,0.00,0.000000,,2013-12-13 08:42:00,
2013-12-13 02:52:00,-11.0,-18.0,-100.00,North,350,6.0,12.0,69,0.00,,,0.00,0.000000,,2013-12-13 08:52:00,
2013-12-13 03:02:00,-11.0,-18.0,-100.00,North,350,6.0,12.0,69,0.00,,,0.00,0.000000,,2013-12-13 09:02:00,
2013-12-13 03:12:00,-11.0,-18.0,-100.00,North,350,6.0,12.0,69,0.00,,,0.00,0.000000,,2013-12-13 09:12:00,
2013-12-13 03:43:00,-11.0,-18.0,-100.00,North,352,5.0,12.0,69,0.00,,,0.00,0.000000,,2013-12-13 09:43:00,
2013-12-13 03:54:00,-11.0,-18.0,-100.00,North,352,5.0,12.0,69,0.00,,,0.00,0.000000,,2013-12-13 09:54:00,
2013-12-13 04:03:00,-11.0,-18.0,-100.00,North,352,5.0,12.0,69,0.00,,,0.00,0.000000,,2013-12-13 10:03:00,
2013-12-13 04:12:00,-11.0,-18.0,-100.00,North,352,5.0,12.0,69,0.00,,,0.00,0.000000,,2013-12-13 10:12:00,
2013-12-13 04:43:00,-12.0,-20.0,-100.00,North,351,4.0,10.0,68,0.00,,,0.00,0.000000,,2013-12-13 10:43:00,
2013-12-13 04:53:00,-12.0,-20.0,-100.00,North,351,4.0,10.0,68,0.00,,,0.00,0.000000,,2013-12-13 10:53:00,
2013-12-13 05:02:00,-12.0,-20.0,-100.00,North,351,4.0,10.0,68,0.00,,,0.00,0.000000,,2013-12-13 11:02:00,
2013-12-13 05:12:00,-12.0,-20.0,-100.00,North,351,4.0,10.0,68,0.00,,,0.00,0.000000,,2013-12-13 11:12:00,
2013-12-13 05:43:00,-12.0,-19.0,-100.00,NNW,348,3.0,6.0,69,0.00,,,0.00,0.000000,,2013-12-13 11:43:00,
2013-12-13 05:53:00,-12.0,-19.0,-100.00,NNW,348,3.0,6.0,69,0.00,,,0.00,0.000000,,2013-12-13 11:53:00,
2013-12-13 06:02:00,-12.0,-19.0,-100.00,NNW,348,3.0,6.0,69,0.00,,,0.00,0.000000,,2013-12-13 12:02:00,
2013-12-13 06:12:00,-12.0,-19.0,-100.00,NNW,348,3.0,6.0,69,0.00,,,0.00,0.000000,,2013-12-13 12:12:00,
2013-12-13 06:42:00,-14.0,-21.0,-100.00,NNW,346,4.0,6.0,69,0.00,,,0.00,0.000000,,2013-12-13 12:42:00,
2013-12-13 06:53:00,-14.0,-21.0,-100.00,NNW,346,4.0,6.0,69,0.00,,,0.00,0.000000,,2013-12-13 12:53:00,
2013-12-13 07:02:00,-14.0,-21.0,-100.00,NNW,346,4.0,6.0,69,0.00,,,0.00,0.000000,,2013-12-13 13:02:00,
2013-12-13 07:12:00,-14.0,-21.0,-100.00,NNW,346,4.0,6.0,69,0.00,,,0.00,0.000000,,2013-12-13 13:12:00,
2013-12-13 07:42:00,-14.0,-21.0,-100.00,NNW,342,4.0,9.0,70,0.00,,,0.00,0.000000,,2013-12-13 13:42:00,
2013-12-13 07:52:00,-14.0,-21.0,-100.00,NNW,342,4.0,9.0,70,0.00,,,0.00,0.000000,,2013-12-13 13:52:00,
2013-12-13 08:02:00,-14.0,-21.0,-100.00,NNW,342,4.0,9.0,70,0.00,,,0.00,0.000000,,2013-12-13 14:02:00,
2013-12-13 08:11:00,-14.0,-21.0,-100.00,NNW,342,4.0,9.0,70,0.00,,,0.00,0.000000,,2013-12-13 14:11:00,
2013-12-13 08:43:00,-15.0,-22.0,-100.00,North,352,5.0,9.0,69,0.00,,,0.00,1.000000,,2013-12-13 14:43:00,
2013-12-13 08:53:00,-15.0,-22.0,-100.00,North,352,5.0,9.0,69,0.00,,,0.00,1.000000,,2013-12-13 14:53:00,
2013-12-13 09:02:00,-15.0,-22.0,-100.00,North,352,5.0,9.0,69,0.00,,,0.00,1.000000,,2013-12-13 15:02:00,
2013-12-13 09:12:00,-15.0,-22.0,-100.00,North,352,5.0,9.0,69,0.00,,,0.00,1.000000,,2013-12-13 15:12:00,
2013-12-13 09:13:00,-14.0,-21.0,-100.00,North,360,4.0,10.0,68,0.00,,,0.00,10.000000,,2013-12-13 15:13:00,
2013-12-13 09:44:00,-14.0,-21.0,-100.00,North,360,4.0,10.0,68,0.00,,,0.00,10.000000,,2013-12-13 15:44:00,
2013-12-13 09:54:00,-14.0,-21.0,-100.00,North,360,4.0,10.0,68,0.00,,,0.00,10.000000,,2013-12-13 15:54:00,
2013-12-13 10:03:00,-14.0,-21.0,-100.00,North,360,4.0,10.0,68,0.00,,,0.00,10.000000,,2013-12-13 16:03:00,
2013-12-13 10:43:00,-12.0,-20.0,-100.00,North,355,4.0,10.0,65,0.00,,,0.00,24.000000,,2013-12-13 16:43:00,
2013-12-13 10:53:00,-12.0,-20.0,-100.00,North,355,4.0,10.0,65,0.00,,,0.00,24.000000,,2013-12-13 16:53:00,
2013-12-13 11:02:00,-12.0,-20.0,-100.00,North,355,4.0,10.0,65,0.00,,,0.00,24.000000,,2013-12-13 17:02:00,
2013-12-13 11:12:00,-12.0,-20.0,-100.00,North,355,4.0,10.0,65,0.00,,,0.00,24.000000,,2013-12-13 17:12:00,
2013-12-13 11:43:00,-10.0,-20.0,-100.00,North,360,4.0,8.0,60,0.00,,,0.00,41.000000,,2013-12-13 17:43:00,
2013-12-13 11:52:00,-10.0,-20.0,-100.00,North,360,4.0,8.0,60,0.00,,,0.00,41.000000,,2013-12-13 17:52:00,
2013-12-13 12:02:00,-10.0,-20.0,-100.00,North,360,4.0,8.0,60,0.00,,,0.00,41.000000,,2013-12-13 18:02:00,
2013-12-13 12:12:00,-10.0,-20.0,-100.00,North,360,4.0,8.0,60,0.00,,,0.00,41.000000,,2013-12-13 18:12:00,
2013-12-13 12:42:00,-5.0,-17.0,-100.00,NNW,348,4.0,8.0,56,0.00,,,0.00,68.000000,,2013-12-13 18:42:00,
2013-12-13 12:52:00,-5.0,-17.0,-100.00,NNW,348,4.0,8.0,56,0.00,,,0.00,68.000000,,2013-12-13 18:52:00,
2013-12-13 13:02:00,-5.0,-17.0,-100.00,NNW,348,4.0,8.0,56,0.00,,,0.00,68.000000,,2013-12-13 19:02:00,
2013-12-13 13:12:00,-5.0,-17.0,-100.00,NNW,348,4.0,8.0,56,0.00,,,0.00,68.000000,,2013-12-13 19:12:00,
2013-12-13 13:42:00,-6.0,-17.0,-100.00,North,357,4.0,9.0,57,0.00,,,0.00,61.000000,,2013-12-13 19:42:00,
2013-12-13 13:52:00,-6.0,-17.0,-100.00,North,357,4.0,9.0,57,0.00,,,0.00,61.000000,,2013-12-13 19:52:00,
2013-12-13 14:02:00,-6.0,-17.0,-100.00,North,357,4.0,9.0,57,0.00,,,0.00,61.000000,,2013-12-13 20:02:00,
2013-12-13 14:11:00,-6.0,-17.0,-100.00,North,357,4.0,9.0,57,0.00,,,0.00,61.000000,,2013-12-13 20:11:00,
2013-12-13 14:42:00,-6.0,-17.0,-100.00,NNW,335,4.0,8.0,58,0.00,,,0.00,39.000000,,2013-12-13 20:42:00,
2013-12-13 14:53:00,-6.0,-17.0,-100.00,NNW,335,4.0,8.0,58,0.00,,,0.00,39.000000,,2013-12-13 20:53:00,
2013-12-13 15:02:00,-6.0,-17.0,-100.00,NNW,335,4.0,8.0,58,0.00,,,0.00,39.000000,,2013-12-13 21:02:00,
2013-12-13 15:11:00,-6.0,-17.0,-100.00,NNW,335,4.0,8.0,58,0.00,,,0.00,39.000000,,2013-12-13 21:11:00,
2013-12-13 15:13:00,-9.0,-19.0,-100.00,North,358,5.0,8.0,60,0.00,,,0.00,9.000000,,2013-12-13 21:13:00,
2013-12-13 15:43:00,-9.0,-19.0,-100.00,North,358,5.0,8.0,60,0.00,,,0.00,9.000000,,2013-12-13 21:43:00,
2013-12-13 15:53:00,-9.0,-19.0,-100.00,North,358,5.0,8.0,60,0.00,,,0.00,9.000000,,2013-12-13 21:53:00,
2013-12-13 16:03:00,-9.0,-19.0,-100.00,North,358,5.0,8.0,60,0.00,,,0.00,9.000000,,2013-12-13 22:03:00,
2013-12-13 16:42:00,-11.0,-20.0,-100.00,NNW,344,4.0,6.0,62,0.00,,,0.00,3.000000,,2013-12-13 22:42:00,
2013-12-13 16:53:00,-11.0,-20.0,-100.00,NNW,344,4.0,6.0,62,0.00,,,0.00,3.000000,,2013-12-13 22:53:00,
2013-12-13 17:03:00,-11.0,-20.0,-100.00,NNW,344,4.0,6.0,62,0.00,,,0.00,3.000000,,2013-12-13 23:03:00,
2013-12-13 17:12:00,-11.0,-20.0,-100.00,NNW,344,4.0,6.0,62,0.00,,,0.00,3.000000,,2013-12-13 23:12:00,
2013-12-13 17:42:00,-11.0,-20.0,-100.00,North,4,3.0,5.0,64,0.00,,,0.00,0.000000,,2013-12-13 23:42:00,
2013-12-13 17:53:00,-11.0,-20.0,-100.00,North,4,3.0,5.0,64,0.00,,,0.00,0.000000,,2013-12-13 23:53:00,
2013-12-13 18:02:00,-11.0,-20.0,-100.00,North,4,3.0,5.0,64,0.00,,,0.00,0.000000,,2013-12-14 00:02:00,
2013-12-13 18:11:00,-11.0,-20.0,-100.00,North,4,3.0,5.0,64,0.00,,,0.00,0.000000,,2013-12-14 00:11:00,
2013-12-13 18:42:00,-12.0,-21.0,-100.00,North,357,3.0,5.0,63,0.00,,,0.00,0.000000,,2013-12-14 00:42:00,
2013-12-13 18:52:00,-12.0,-21.0,-100.00,North,357,3.0,5.0,63,0.00,,,0.00,0.000000,,2013-12-14 00:52:00,
2013-12-13 19:02:00,-12.0,-21.0,-100.00,North,357,3.0,5.0,63,0.00,,,0.00,0.000000,,2013-12-14 01:02:00,
2013-12-13 19:11:00,-12.0,-21.0,-100.00,North,357,3.0,5.0,63,0.00,,,0.00,0.000000,,2013-12-14 01:11:00,
2013-12-13 19:42:00,-12.0,-20.0,-100.00,North,356,3.0,5.0,66,0.00,,,0.00,0.000000,,2013-12-14 01:42:00,
2013-12-13 19:52:00,-12.0,-20.0,-100.00,North,356,3.0,5.0,66,0.00,,,0.00,0.000000,,2013-12-14 01:52:00,
2013-12-13 20:01:00,-12.0,-20.0,-100.00,North,356,3.0,5.0,66,0.00,,,0.00,0.000000,,2013-12-14 02:01:00,
2013-12-13 20:12:00,-12.0,-20.0,-100.00,North,356,3.0,5.0,66,0.00,,,0.00,0.000000,,2013-12-14 02:12:00,
2013-12-13 20:42:00,-11.0,-20.0,-100.00,NNE,12,4.0,8.0,64,0.00,,,0.00,0.000000,,2013-12-14 02:42:00,
2013-12-13 20:52:00,-11.0,-20.0,-100.00,NNE,12,4.0,8.0,64,0.00,,,0.00,0.000000,,2013-12-14 02:52:00,
2013-12-13 21:02:00,-11.0,-20.0,-100.00,NNE,12,4.0,8.0,64,0.00,,,0.00,0.000000,,2013-12-14 03:02:00,
2013-12-13 21:12:00,-11.0,-20.0,-100.00,NNE,12,4.0,8.0,64,0.00,,,0.00,0.000000,,2013-12-14 03:12:00,
2013-12-13 21:13:00,-11.0,-19.0,-100.00,NE,49,2.0,8.0,66,0.00,,,0.00,0.000000,,2013-12-14 03:13:00,
2013-12-13 21:43:00,-11.0,-19.0,-100.00,NE,49,2.0,8.0,66,0.00,,,0.00,0.000000,,2013-12-14 03:43:00,
2013-12-13 21:54:00,-11.0,-19.0,-100.00,NE,49,2.0,8.0,66,0.00,,,0.00,0.000000,,2013-12-14 03:54:00,
2013-12-13 22:03:00,-11.0,-19.0,-100.00,NE,49,2.0,8.0,66,0.00,,,0.00,0.000000,,2013-12-14 04:03:00,
2013-12-13 22:43:00,-11.0,-19.0,-100.00,ENE,64,3.0,8.0,65,0.00,,,0.00,0.000000,,2013-12-14 04:43:00,
2013-12-13 22:53:00,-11.0,-19.0,-100.00,ENE,64,3.0,8.0,65,0.00,,,0.00,0.000000,,2013-12-14 04:53:00,
2013-12-13 23:03:00,-11.0,-19.0,-100.00,ENE,64,3.0,8.0,65,0.00,,,0.00,0.000000,,2013-12-14 05:03:00,
2013-12-13 23:12:00,-11.0,-19.0,-100.00,ENE,64,3.0,8.0,65,0.00,,,0.00,0.000000,,2013-12-14 05:12:00,
2013-12-13 23:42:00,-11.0,-19.0,-100.00,ESE,113,2.0,6.0,66,0.00,,,0.00,0.000000,,2013-12-14 05:42:00,
2013-12-13 23:53:00,-11.0,-19.0,-100.00,ESE,113,2.0,6.0,66,0.00,,,0.00,0.000000,,2013-12-14 05:53:00,